createdAt,value
2019-02-11T00:01:01.965Z,42.30
2019-02-11T00:03:28.047Z,42.30
2019-02-11T00:05:54.093Z,42.30
2019-02-11T00:08:20.444Z,42.30
2019-02-11T00:13:12.996Z,42.30
2019-02-11T00:15:39.041Z,42.30
2019-02-11T00:18:05.128Z,42.30
2019-02-11T00:20:31.181Z,42.30
2019-02-11T00:22:57.257Z,42.30
2019-02-11T00:25:23.621Z,42.80
2019-02-11T00:27:49.685Z,42.20
2019-02-11T00:30:15.760Z,42.30
2019-02-11T00:32:41.816Z,42.10
2019-02-11T00:35:07.984Z,42.10
2019-02-11T00:42:26.963Z,42.00
2019-02-11T00:44:53.041Z,42.00
2019-02-11T00:47:19.124Z,42.00
2019-02-11T00:49:45.173Z,41.90
2019-02-11T00:52:11.216Z,41.90
2019-02-11T00:57:04.015Z,41.80
2019-02-11T00:59:30.399Z,41.80
2019-02-11T01:04:22.888Z,41.80
2019-02-11T01:06:48.937Z,41.70
2019-02-11T01:14:08.124Z,41.70
2019-02-11T01:16:34.167Z,41.60
2019-02-11T01:19:00.245Z,41.60
2019-02-11T01:21:26.291Z,41.60
2019-02-11T01:23:52.344Z,41.60
2019-02-11T01:26:18.695Z,41.50
2019-02-11T01:28:45.024Z,41.50
2019-02-11T01:31:11.068Z,41.50
2019-02-11T01:33:37.147Z,41.50
2019-02-11T01:36:03.509Z,41.50
2019-02-11T01:38:29.585Z,41.40
2019-02-11T01:40:55.637Z,41.40
2019-02-11T01:48:15.456Z,41.30
2019-02-11T01:50:41.536Z,41.30
2019-02-11T01:55:34.551Z,41.30
2019-02-11T01:58:00.668Z,41.30
2019-02-11T02:00:26.719Z,41.20
2019-02-11T02:02:52.793Z,41.20
2019-02-11T02:05:19.147Z,41.20
2019-02-11T02:07:45.195Z,41.20
2019-02-11T02:12:39.296Z,41.10
2019-02-11T02:15:08.980Z,41.10
2019-02-11T02:17:35.050Z,41.10
2019-02-11T02:20:02.928Z,41.00
2019-02-11T02:22:28.972Z,41.00
2019-02-11T02:24:55.015Z,41.00
2019-02-11T02:27:21.339Z,40.90
2019-02-11T02:32:13.800Z,41.00
2019-02-11T02:34:39.875Z,40.90
2019-02-11T02:37:05.919Z,40.90
2019-02-11T02:39:32.004Z,40.90
2019-02-11T02:41:58.051Z,40.80
2019-02-11T02:44:24.420Z,40.90
2019-02-11T02:46:50.757Z,40.90
2019-02-11T02:54:11.296Z,40.90
2019-02-11T02:59:04.448Z,40.70
2019-02-11T03:01:30.495Z,40.80
2019-02-11T03:03:56.544Z,40.80
2019-02-11T03:06:22.924Z,40.80
2019-02-11T03:08:48.983Z,40.70
2019-02-11T03:11:15.277Z,40.70
2019-02-11T03:13:41.608Z,40.70
2019-02-11T03:16:07.652Z,40.70
2019-02-11T03:18:33.732Z,40.70
2019-02-11T03:21:00.079Z,40.70
2019-02-11T03:23:26.127Z,40.60
2019-02-11T03:28:18.892Z,40.70
2019-02-11T03:30:44.983Z,40.60
2019-02-11T03:33:11.122Z,40.60
2019-02-11T03:38:04.193Z,40.50
2019-02-11T03:40:30.240Z,40.50
2019-02-11T03:42:56.284Z,40.50
2019-02-11T03:45:22.374Z,40.50
2019-02-11T03:47:48.425Z,40.50
2019-02-11T03:50:14.509Z,40.50
2019-02-11T03:52:40.561Z,40.40
2019-02-11T03:55:08.036Z,40.40
2019-02-11T03:57:34.079Z,40.40
2019-02-11T04:00:00.298Z,40.40
2019-02-11T04:02:27.694Z,40.40
2019-02-11T04:04:54.024Z,40.40
2019-02-11T04:07:20.357Z,40.30
2019-02-11T04:09:46.401Z,40.40
2019-02-11T04:14:38.891Z,40.30
2019-02-11T04:17:04.943Z,40.30
2019-02-11T04:22:06.108Z,40.30
2019-02-11T04:26:58.578Z,40.20
2019-02-11T04:29:25.012Z,40.20
2019-02-11T04:36:43.993Z,40.10
2019-02-11T04:39:10.067Z,40.10
2019-02-11T04:41:36.444Z,40.10
2019-02-11T04:44:02.487Z,40.20
2019-02-11T04:46:28.913Z,40.10
2019-02-11T04:53:47.849Z,40.20
2019-02-11T04:56:13.893Z,40.20
2019-02-11T04:58:40.256Z,40.20
2019-02-11T05:03:33.307Z,40.10
2019-02-11T05:05:59.389Z,40.10
2019-02-11T05:08:25.436Z,40.10
2019-02-11T05:10:51.488Z,40.10
2019-02-11T05:20:36.894Z,40.00
2019-02-11T05:23:03.228Z,40.00
2019-02-11T05:25:29.277Z,40.00
2019-02-11T05:32:48.770Z,40.00
2019-02-11T05:35:15.295Z,40.00
2019-02-11T05:37:41.361Z,40.00
2019-02-11T05:40:10.781Z,40.00
2019-02-11T05:42:36.918Z,40.10
2019-02-11T05:45:06.140Z,40.10
2019-02-11T05:47:32.180Z,40.00
2019-02-11T05:49:58.512Z,40.00
2019-02-11T05:52:24.584Z,40.00
2019-02-11T05:54:50.660Z,40.00
2019-02-11T05:57:17.088Z,40.00
2019-02-11T05:59:43.958Z,40.00
2019-02-11T06:02:10.015Z,40.00
2019-02-11T06:04:36.093Z,40.00
2019-02-11T06:07:02.142Z,40.00
2019-02-11T06:09:28.193Z,40.00
2019-02-11T06:14:21.375Z,40.00
2019-02-11T06:16:47.475Z,39.90
2019-02-11T06:19:13.831Z,40.00
2019-02-11T06:21:39.889Z,40.00
2019-02-11T06:24:05.939Z,39.90
2019-02-11T06:28:58.482Z,39.90
2019-02-11T06:31:24.864Z,40.00
2019-02-11T06:36:17.760Z,39.80
2019-02-11T06:38:44.064Z,39.70
2019-02-11T06:43:36.826Z,39.70
2019-02-11T06:46:02.871Z,39.80
2019-02-11T06:50:55.761Z,39.90
2019-02-11T06:55:48.571Z,39.90
2019-02-11T06:58:14.616Z,39.90
2019-02-11T07:00:41.043Z,39.90
2019-02-11T07:03:07.088Z,39.90
2019-02-11T07:05:33.164Z,40.00
2019-02-11T07:07:59.246Z,40.00
2019-02-11T07:10:25.380Z,40.00
2019-02-11T07:12:51.757Z,40.00
2019-02-11T07:15:22.164Z,40.50
2019-02-11T07:17:45.803Z,39.90
2019-02-11T07:20:11.933Z,39.90
2019-02-11T07:25:08.012Z,39.90
2019-02-11T07:27:34.103Z,40.00
2019-02-11T07:30:00.289Z,39.90
2019-02-11T07:32:27.267Z,39.90
2019-02-11T07:37:19.967Z,40.00
2019-02-11T07:39:46.047Z,40.00
2019-02-11T07:42:19.900Z,40.00
2019-02-11T07:44:47.848Z,39.90
2019-02-11T07:47:13.900Z,40.00
2019-02-11T07:49:40.379Z,39.90
2019-02-11T07:52:06.751Z,39.90
2019-02-11T07:54:32.855Z,39.90
2019-02-11T07:56:58.900Z,39.90
2019-02-11T07:59:24.944Z,39.90
2019-02-11T08:04:18.095Z,39.90
2019-02-11T08:06:44.424Z,39.90
2019-02-11T08:11:39.132Z,39.90
2019-02-11T08:14:05.473Z,39.90
2019-02-11T08:18:58.003Z,39.90
2019-02-11T08:21:24.357Z,39.90
2019-02-11T08:23:50.395Z,39.90
2019-02-11T08:28:43.344Z,39.90
2019-02-11T08:36:02.536Z,39.80
2019-02-11T08:38:28.677Z,39.80
2019-02-11T08:43:21.733Z,39.90
2019-02-11T08:45:47.854Z,39.90
2019-02-11T08:48:14.283Z,39.90
2019-02-11T08:50:40.340Z,39.90
2019-02-11T08:53:06.521Z,39.90
2019-02-11T08:55:32.573Z,39.90
2019-02-11T08:57:58.893Z,39.90
2019-02-11T09:00:24.972Z,39.90
2019-02-11T09:05:17.800Z,40.30
2019-02-11T09:07:43.843Z,40.30
2019-02-11T09:10:11.619Z,40.20
2019-02-11T09:12:37.663Z,40.00
2019-02-11T09:15:07.547Z,40.20
2019-02-11T09:17:33.587Z,40.10
2019-02-11T09:19:59.951Z,40.10
2019-02-11T09:22:26.289Z,40.20
2019-02-11T09:24:52.607Z,40.20
2019-02-11T09:27:18.657Z,40.20
2019-02-11T09:32:11.501Z,40.10
2019-02-11T09:34:37.828Z,40.10
2019-02-11T09:37:03.907Z,40.10
2019-02-11T09:39:30.279Z,40.20
2019-02-11T09:41:56.359Z,40.10
2019-02-11T09:44:29.489Z,40.10
2019-02-11T09:46:50.748Z,40.10
2019-02-11T09:49:17.135Z,40.20
2019-02-11T09:51:45.308Z,40.20
2019-02-11T09:54:11.351Z,40.20
2019-02-11T10:01:30.583Z,40.20
2019-02-11T10:03:56.664Z,40.20
2019-02-11T10:06:22.713Z,40.20
2019-02-11T10:11:16.100Z,40.30
2019-02-11T10:13:42.485Z,40.20
2019-02-11T10:16:12.498Z,40.30
2019-02-11T10:21:03.164Z,40.30
2019-02-11T10:25:55.658Z,40.40
2019-02-11T10:28:21.995Z,40.40
2019-02-11T10:30:48.044Z,40.40
2019-02-11T10:33:14.363Z,40.40
2019-02-11T10:35:42.538Z,40.40
2019-02-11T10:40:35.900Z,40.40
2019-02-11T10:47:56.720Z,40.40
2019-02-11T10:50:22.759Z,40.50
2019-02-11T10:55:17.592Z,40.50
2019-02-11T11:00:13.927Z,40.50
2019-02-11T11:02:40.347Z,40.50
2019-02-11T11:05:09.488Z,40.50
2019-02-11T11:07:35.568Z,40.50
2019-02-11T11:10:04.318Z,40.60
2019-02-11T11:12:30.364Z,41.10
2019-02-11T11:14:56.444Z,40.50
2019-02-11T11:17:23.177Z,40.50
2019-02-11T11:19:49.673Z,40.60
2019-02-11T11:22:16.001Z,40.60
2019-02-11T11:24:42.053Z,40.50
2019-02-11T11:32:01.828Z,40.60
2019-02-11T11:34:28.157Z,40.60
2019-02-11T11:36:54.491Z,40.60
2019-02-11T11:39:25.450Z,40.50
2019-02-11T11:41:52.445Z,40.50
2019-02-11T11:44:18.811Z,40.60
2019-02-11T11:46:47.133Z,40.70
2019-02-11T11:49:12.833Z,40.80
2019-02-11T11:51:40.570Z,40.70
2019-02-11T11:54:06.863Z,40.70
2019-02-11T11:56:32.971Z,40.70
2019-02-11T12:01:25.956Z,40.70
2019-02-11T12:03:52.198Z,40.70
2019-02-11T12:06:18.542Z,40.80
2019-02-11T12:08:44.625Z,40.80
2019-02-11T12:11:10.672Z,40.80
2019-02-11T12:16:03.291Z,40.80
2019-02-11T12:18:29.685Z,40.70
2019-02-11T12:20:56.028Z,40.80
2019-02-11T12:23:23.156Z,40.70
2019-02-11T12:25:49.198Z,40.70
2019-02-11T12:28:15.282Z,40.80
2019-02-11T12:30:41.329Z,40.80
2019-02-11T12:35:34.114Z,40.70
2019-02-11T12:38:00.187Z,40.70
2019-02-11T12:40:26.687Z,40.60
2019-02-11T12:42:53.860Z,40.60
2019-02-11T12:45:24.336Z,40.60
2019-02-11T12:47:51.474Z,40.60
2019-02-11T12:50:17.523Z,40.60
2019-02-11T12:52:43.602Z,40.60
2019-02-11T12:55:11.660Z,40.60
2019-02-11T12:57:37.857Z,40.60
2019-02-11T13:02:32.253Z,40.60
2019-02-11T13:04:58.339Z,40.60
2019-02-11T13:07:24.486Z,40.60
2019-02-11T13:09:50.651Z,40.60
2019-02-11T13:12:16.696Z,40.60
2019-02-11T13:17:15.491Z,40.60
2019-02-11T13:19:37.149Z,40.60
2019-02-11T13:22:04.134Z,40.60
2019-02-11T13:24:30.217Z,40.50
2019-02-11T13:26:56.262Z,40.50
2019-02-11T13:29:22.398Z,40.50
2019-02-11T13:31:48.488Z,40.60
2019-02-11T13:34:14.528Z,40.60
2019-02-11T13:36:40.610Z,40.60
2019-02-11T13:39:06.660Z,40.60
2019-02-11T13:41:32.718Z,40.60
2019-02-11T13:43:58.922Z,40.60
2019-02-11T13:46:25.068Z,40.60
2019-02-11T13:48:51.114Z,40.60
2019-02-11T13:51:17.292Z,40.60
2019-02-11T13:53:44.250Z,40.60
2019-02-11T13:56:10.518Z,40.60
2019-02-11T13:58:36.566Z,40.50
2019-02-11T14:01:05.228Z,40.50
2019-02-11T14:03:31.394Z,40.50
2019-02-11T14:05:57.473Z,40.60
2019-02-11T14:08:23.521Z,40.60
2019-02-11T14:10:49.861Z,40.60
2019-02-11T14:13:16.196Z,40.60
2019-02-11T14:15:42.388Z,40.60
2019-02-11T14:18:14.343Z,40.50
2019-02-11T14:20:38.474Z,40.60
2019-02-11T14:23:05.323Z,40.50
2019-02-11T14:25:42.602Z,40.60
2019-02-11T14:27:59.344Z,40.60
2019-02-11T14:30:25.740Z,40.60
2019-02-11T14:35:19.622Z,40.60
2019-02-11T14:37:45.705Z,40.50
2019-02-11T14:42:39.600Z,40.60
2019-02-11T14:45:11.459Z,40.60
2019-02-11T14:50:06.596Z,40.70
2019-02-11T14:52:32.677Z,40.60
2019-02-11T14:54:58.719Z,40.60
2019-02-11T14:57:24.764Z,40.60
2019-02-11T14:59:50.848Z,40.70
2019-02-11T15:02:16.891Z,40.70
2019-02-11T15:04:42.945Z,40.70
2019-02-11T15:07:09.051Z,40.70
2019-02-11T15:09:35.137Z,40.70
2019-02-11T15:12:01.180Z,40.70
2019-02-11T15:14:27.536Z,40.90
2019-02-11T15:16:53.584Z,40.70
2019-02-11T15:19:19.624Z,40.70
2019-02-11T15:21:46.016Z,40.70
2019-02-11T15:24:12.065Z,40.70
2019-02-11T15:29:04.913Z,40.90
2019-02-11T15:31:30.997Z,40.90
2019-02-11T15:33:57.360Z,40.90
2019-02-11T15:36:23.407Z,40.80
2019-02-11T15:38:49.489Z,40.80
2019-02-11T15:41:15.836Z,40.70
2019-02-11T15:43:41.880Z,40.80
2019-02-11T15:46:07.958Z,41.60
2019-02-11T15:48:42.480Z,40.60
2019-02-11T15:51:01.975Z,40.60
2019-02-11T15:53:28.021Z,40.60
2019-02-11T15:55:54.099Z,40.60
2019-02-11T15:58:20.174Z,40.60
2019-02-11T16:03:13.315Z,40.60
2019-02-11T16:05:39.367Z,40.70
2019-02-11T16:12:58.848Z,40.70
2019-02-11T16:15:25.130Z,40.70
2019-02-11T16:17:51.303Z,40.60
2019-02-11T16:20:18.366Z,40.60
2019-02-11T16:22:44.408Z,40.60
2019-02-11T16:25:13.084Z,40.60
2019-02-11T16:37:40.880Z,40.80
2019-02-11T16:42:41.322Z,40.80
2019-02-11T16:47:35.191Z,40.90
2019-02-11T16:50:01.979Z,40.90
2019-02-11T16:52:28.376Z,40.90
2019-02-11T16:54:54.660Z,40.90
2019-02-11T16:57:20.740Z,40.90
2019-02-11T16:59:47.081Z,40.90
2019-02-11T17:02:13.670Z,40.90
2019-02-11T17:04:39.848Z,41.00
2019-02-11T17:11:59.424Z,41.00
2019-02-11T17:14:25.477Z,41.10
2019-02-11T17:16:51.551Z,41.20
2019-02-11T17:21:44.348Z,41.20
2019-02-11T17:24:10.424Z,41.20
2019-02-11T17:31:30.228Z,41.10
2019-02-11T17:33:56.605Z,41.10
2019-02-11T17:36:22.645Z,41.00
2019-02-11T17:38:48.744Z,41.10
2019-02-11T17:43:41.589Z,41.00
2019-02-11T17:46:07.632Z,40.90
2019-02-11T17:48:33.681Z,41.00
2019-02-11T17:51:00.089Z,41.10
2019-02-11T17:53:26.133Z,40.90
2019-02-11T17:58:18.873Z,40.90
2019-02-11T18:08:07.903Z,41.00
2019-02-11T18:10:34.415Z,41.00
2019-02-11T18:13:00.464Z,41.10
2019-02-11T18:17:53.787Z,41.10
2019-02-11T18:20:19.828Z,41.20
2019-02-11T18:22:45.872Z,41.20
2019-02-11T18:25:12.290Z,41.10
2019-02-11T18:27:38.332Z,40.90
2019-02-11T18:32:33.768Z,41.10
2019-02-11T18:34:59.826Z,41.20
2019-02-11T18:39:52.623Z,41.20
2019-02-11T18:42:18.953Z,41.30
2019-02-11T18:47:11.465Z,41.20
2019-02-11T18:49:37.839Z,41.10
2019-02-11T18:52:03.884Z,41.10
2019-02-11T18:54:29.990Z,41.00
2019-02-11T18:56:56.092Z,41.00
2019-02-11T18:59:24.615Z,40.90
2019-02-11T19:01:50.413Z,40.80
2019-02-11T19:04:16.849Z,40.80
2019-02-11T19:06:43.173Z,40.80
2019-02-11T19:09:11.448Z,40.70
2019-02-11T19:11:37.879Z,40.60
2019-02-11T19:14:03.984Z,40.70
2019-02-11T19:16:30.342Z,40.60
2019-02-11T19:18:56.383Z,40.70
2019-02-11T19:21:22.788Z,40.70
2019-02-11T19:23:48.892Z,40.60
2019-02-11T19:26:14.946Z,40.60
2019-02-11T19:28:40.983Z,40.60
2019-02-11T19:33:33.499Z,40.60
2019-02-11T19:35:59.555Z,40.60
2019-02-11T19:38:25.653Z,40.70
2019-02-11T19:40:51.699Z,40.60
2019-02-11T19:43:17.795Z,40.70
2019-02-11T19:48:10.260Z,40.60
2019-02-11T19:53:02.812Z,40.60
2019-02-11T19:55:28.919Z,40.70
2019-02-11T19:57:55.285Z,40.70
2019-02-11T20:02:49.412Z,40.60
2019-02-11T20:05:15.456Z,40.60
2019-02-11T20:10:14.464Z,40.60
2019-02-11T20:12:40.839Z,40.60
2019-02-11T20:15:10.752Z,40.40
2019-02-11T20:22:31.649Z,40.30
2019-02-11T20:24:57.708Z,40.20
2019-02-11T20:27:24.039Z,40.30
2019-02-11T20:29:50.471Z,40.10
2019-02-11T20:32:16.807Z,40.10
2019-02-11T20:34:43.130Z,40.10
2019-02-11T20:39:35.994Z,40.10
2019-02-11T20:42:02.041Z,40.00
2019-02-11T20:44:28.148Z,40.00
2019-02-11T20:46:54.188Z,40.00
2019-02-11T20:49:20.236Z,40.00
2019-02-11T20:51:46.332Z,40.00
2019-02-11T20:54:12.640Z,40.00
2019-02-11T20:56:38.737Z,40.00
2019-02-11T21:06:24.621Z,40.00
2019-02-11T21:08:50.933Z,40.00
2019-02-11T21:16:09.952Z,40.00
2019-02-11T21:18:37.633Z,40.00
2019-02-11T21:23:30.439Z,40.00
2019-02-11T21:25:56.487Z,40.00
2019-02-11T21:33:15.971Z,40.00
2019-02-11T21:35:42.295Z,40.00
2019-02-11T21:38:08.391Z,40.00
2019-02-11T21:43:00.884Z,40.00
2019-02-11T21:45:27.218Z,40.00
2019-02-11T21:47:53.292Z,40.00
2019-02-11T21:50:26.472Z,40.00
2019-02-11T21:52:48.843Z,39.60
2019-02-11T21:55:18.527Z,39.80
2019-02-11T21:57:44.901Z,39.90
2019-02-11T22:00:15.424Z,39.90
2019-02-11T22:05:07.933Z,40.00
2019-02-11T22:07:34.434Z,40.00
2019-02-11T22:10:00.523Z,40.00
2019-02-11T22:12:26.592Z,40.10
2019-02-11T22:17:19.086Z,40.10
2019-02-11T22:19:45.447Z,40.10
2019-02-11T22:22:11.568Z,40.10
2019-02-11T22:24:37.625Z,40.20
2019-02-11T22:27:03.695Z,40.10
2019-02-11T22:29:29.797Z,40.10
2019-02-11T22:34:22.264Z,40.20
2019-02-11T22:36:48.355Z,40.20
2019-02-11T22:39:14.651Z,40.20
2019-02-11T22:41:40.696Z,40.10
2019-02-11T22:44:07.108Z,40.20
2019-02-11T22:46:33.436Z,40.10
2019-02-11T22:48:59.479Z,40.20
2019-02-11T22:53:52.632Z,40.10
2019-02-11T22:56:18.960Z,40.20
2019-02-11T22:58:45.101Z,41.10
2019-02-11T23:01:11.137Z,40.20
2019-02-11T23:03:37.222Z,40.10
2019-02-11T23:06:03.295Z,40.20
2019-02-11T23:08:29.466Z,40.10
2019-02-11T23:10:55.848Z,40.20
2019-02-11T23:15:48.382Z,40.10
2019-02-11T23:18:14.429Z,40.10
2019-02-11T23:20:40.472Z,39.90
2019-02-11T23:23:06.587Z,39.80
2019-02-11T23:25:32.654Z,39.60
2019-02-11T23:30:25.427Z,39.50
2019-02-11T23:32:51.480Z,39.50
2019-02-11T23:35:17.888Z,39.40
2019-02-11T23:37:43.932Z,39.40
2019-02-11T23:42:36.420Z,39.20
2019-02-11T23:45:06.071Z,39.10
2019-02-11T23:47:32.115Z,39.00
2019-02-11T23:49:58.528Z,39.00
2019-02-11T23:52:24.603Z,38.90
2019-02-11T23:54:50.648Z,38.80
2019-02-11T23:57:16.699Z,38.80
2019-02-11T23:59:42.773Z,38.80
